Time;durP1;ratioP1;P1;durP2;ratioP2;P2;SDS_P1;SDS_P2;PMS_P1;PMS_P2;Temp;Humidity;BMP_temperature;BMP_pressure;BME280_temperature;BME280_humidity;BME280_pressure;Samples;Min_cycle;Max_cycle;Signal;HPM_P1;HPM_P2
2022/07/30 00:01:46;;;;;;;4.80;1.77;;;20.80;88.50;;;;;;4981211;28;20176;-96
2022/07/30 00:04:11;;;;;;;2.55;2.08;;;20.70;89.20;;;;;;4982577;28;20179;-96
2022/07/30 00:06:38;;;;;;;2.30;1.67;;;20.60;88.90;;;;;;4981697;28;20183;-96
2022/07/30 00:09:04;;;;;;;3.58;1.63;;;20.70;88.70;;;;;;4981110;28;20186;-95
2022/07/30 00:11:35;;;;;;;5.03;1.70;;;20.60;88.70;;;;;;4980636;28;20243;-95
2022/07/30 00:14:01;;;;;;;5.53;1.80;;;20.60;89.90;;;;;;4980766;28;20230;-92
2022/07/30 00:16:27;;;;;;;4.70;1.67;;;20.50;90.20;;;;;;4979851;28;20175;-93
2022/07/30 00:18:52;;;;;;;2.45;1.55;;;20.50;89.60;;;;;;4979783;28;20188;-93
2022/07/30 00:21:23;;;;;;;4.45;1.80;;;20.50;89.40;;;;;;4979890;28;20187;-93
2022/07/30 00:23:49;;;;;;;4.10;1.70;;;20.50;89.40;;;;;;4997000;28;20203;-93
2022/07/30 00:26:15;;;;;;;6.20;2.00;;;20.40;89.90;;;;;;4979538;28;20641;-93
2022/07/30 00:28:40;;;;;;;3.50;1.85;;;20.30;90.00;;;;;;4979722;28;20176;-91
2022/07/30 00:31:09;;;;;;;3.42;1.85;;;20.30;90.20;;;;;;4979718;28;20187;-92
2022/07/30 00:33:34;;;;;;;2.67;1.80;;;20.30;90.20;;;;;;4979549;28;20627;-91
2022/07/30 00:36:00;;;;;;;2.67;2.00;;;20.30;90.60;;;;;;4979804;28;20186;-92
2022/07/30 00:38:25;;;;;;;4.03;2.03;;;20.20;90.80;;;;;;4979523;28;20569;-92
2022/07/30 00:40:57;;;;;;;3.05;1.73;;;20.20;91.10;;;;;;4979044;28;20606;-93
2022/07/30 00:43:22;;;;;;;2.75;1.60;;;20.20;91.20;;;;;;4979288;28;20559;-93
2022/07/30 00:45:48;;;;;;;2.72;1.70;;;20.10;91.30;;;;;;4979291;28;20190;-93
2022/07/30 00:48:14;;;;;;;4.07;1.98;;;20.10;91.30;;;;;;4979219;28;20614;-94
2022/07/30 00:50:40;;;;;;;2.35;1.70;;;20.00;91.50;;;;;;4979050;28;20180;-93
2022/07/30 00:53:06;;;;;;;3.38;2.00;;;19.90;91.70;;;;;;4979074;28;20214;-94
2022/07/30 00:55:33;;;;;;;2.47;1.73;;;19.90;91.80;;;;;;4979331;28;20206;-94
2022/07/30 00:57:59;;;;;;;3.83;1.88;;;19.90;91.70;;;;;;4979304;28;20188;-94
2022/07/30 01:00:25;;;;;;;3.30;1.80;;;19.90;91.70;;;;;;4979139;28;20264;-92
2022/07/30 01:02:52;;;;;;;7.25;1.80;;;19.80;92.40;;;;;;4978817;28;20226;-94
2022/07/30 01:05:18;;;;;;;3.00;1.85;;;19.80;92.00;;;;;;4979354;28;20229;-95
2022/07/30 01:07:44;;;;;;;5.40;1.67;;;19.70;92.20;;;;;;4979476;28;20251;-94
2022/07/30 01:10:12;;;;;;;2.58;1.98;;;19.70;92.40;;;;;;4979006;28;20188;-92
2022/07/30 01:12:38;;;;;;;2.40;1.90;;;19.70;92.30;;;;;;4978520;28;20195;-92
2022/07/30 01:15:07;;;;;;;4.85;1.92;;;19.60;92.00;;;;;;4978444;28;20175;-92
2022/07/30 01:17:34;;;;;;;3.00;1.70;;;19.70;92.20;;;;;;4978796;28;20176;-94
2022/07/30 01:20:04;;;;;;;7.03;1.88;;;19.70;92.10;;;;;;4978663;28;20863;-92
2022/07/30 01:22:46;;;;;;;2.83;1.95;;;19.70;91.80;;;;;;4978565;28;20215;-91
2022/07/30 01:25:29;;;;;;;2.38;1.70;;;19.70;92.10;;;;;;4978599;28;20629;-91
2022/07/30 01:28:18;;;;;;;5.47;1.88;;;19.70;92.10;;;;;;4979353;28;20176;-92
2022/07/30 01:30:45;;;;;;;3.40;1.95;;;19.70;92.20;;;;;;4957567;28;20284;-93
2022/07/30 01:33:13;;;;;;;4.15;1.80;;;19.70;92.00;;;;;;4956331;29;20616;-94
2022/07/30 01:35:40;;;;;;;5.88;1.90;;;19.70;91.90;;;;;;4957381;29;20177;-94
2022/07/30 01:38:08;;;;;;;2.38;1.70;;;19.60;92.00;;;;;;4956632;29;20256;-95
2022/07/30 01:40:36;;;;;;;3.13;1.92;;;19.60;92.40;;;;;;4956967;28;20235;-95
2022/07/30 01:43:06;;;;;;;1.92;1.73;;;19.60;92.60;;;;;;4955434;29;20236;-95
2022/07/30 01:45:33;;;;;;;4.00;2.00;;;19.60;93.20;;;;;;4956067;29;20176;-95
2022/07/30 01:48:01;;;;;;;4.10;2.28;;;19.50;93.30;;;;;;4955949;29;20215;-94
2022/07/30 01:50:29;;;;;;;2.72;1.75;;;19.40;94.00;;;;;;4956662;29;20181;-96
2022/07/30 01:52:57;;;;;;;8.23;2.28;;;19.40;93.90;;;;;;4958924;28;20208;-95
2022/07/30 01:55:34;;;;;;;6.25;2.28;;;19.30;94.00;;;;;;4960162;29;20233;-96
2022/07/30 01:58:00;;;;;;;3.10;1.83;;;19.30;94.80;;;;;;4960797;29;20184;-95
2022/07/30 02:00:29;;;;;;;4.03;2.20;;;19.20;95.30;;;;;;4960401;29;20173;-93
2022/07/30 02:03:07;;;;;;;5.30;2.10;;;19.10;96.10;;;;;;4960910;29;20283;-92
2022/07/30 02:05:35;;;;;;;4.28;2.25;;;19.00;96.10;;;;;;4960463;29;20188;-91
2022/07/30 02:08:32;;;;;;;3.00;1.88;;;19.00;96.40;;;;;;4960306;29;20185;-92
2022/07/30 02:11:14;;;;;;;3.08;1.88;;;19.00;96.40;;;;;;4959937;29;20240;-93
2022/07/30 02:13:51;;;;;;;4.07;2.17;;;19.00;96.80;;;;;;4959758;29;20218;-93
2022/07/30 02:16:22;;;;;;;2.15;1.83;;;19.00;97.00;;;;;;4959465;29;20263;-93
2022/07/30 02:19:13;;;;;;;5.30;2.47;;;19.00;97.20;;;;;;4959580;29;20623;-92
2022/07/30 02:22:04;;;;;;;4.70;2.40;;;19.00;97.20;;;;;;4959327;29;20574;-92
2022/07/30 02:24:32;;;;;;;5.47;2.53;;;19.00;97.70;;;;;;4959686;29;20276;-92
2022/07/30 02:27:26;;;;;;;3.70;1.98;;;18.90;98.20;;;;;;4959147;29;20228;-90
2022/07/30 02:29:56;;;;;;;3.88;2.13;;;18.90;97.80;;;;;;4958988;28;20235;-92
2022/07/30 02:32:25;;;;;;;3.53;2.22;;;18.90;97.90;;;;;;4958982;29;20192;-89
2022/07/30 02:34:57;;;;;;;3.20;2.15;;;18.80;98.40;;;;;;4959222;29;20256;-89
2022/07/30 02:37:24;;;;;;;3.15;2.08;;;18.80;98.40;;;;;;4959080;29;20228;-88
2022/07/30 02:39:52;;;;;;;4.65;2.50;;;18.70;98.80;;;;;;4958962;29;20604;-88
2022/07/30 02:42:23;;;;;;;3.75;2.20;;;18.70;99.30;;;;;;4958851;29;20272;-89
2022/07/30 02:44:52;;;;;;;3.15;2.20;;;18.60;99.80;;;;;;4958903;29;20625;-90
2022/07/30 02:47:21;;;;;;;2.42;1.90;;;18.60;99.90;;;;;;4958857;29;20192;-88
2022/07/30 02:49:49;;;;;;;2.75;2.33;;;18.70;99.90;;;;;;4958880;29;20181;-89
2022/07/30 02:52:18;;;;;;;3.30;1.92;;;18.60;99.90;;;;;;4958717;29;20177;-87
2022/07/30 02:54:46;;;;;;;5.05;2.45;;;18.60;99.90;;;;;;4958796;29;20281;-90
2022/07/30 02:57:14;;;;;;;7.15;2.33;;;18.50;99.90;;;;;;4958740;29;20204;-90
2022/07/30 02:59:42;;;;;;;4.13;2.13;;;18.50;99.90;;;;;;4958544;29;20178;-88
2022/07/30 03:02:11;;;;;;;6.30;1.95;;;18.50;99.90;;;;;;4958399;29;20251;-88
2022/07/30 03:04:38;;;;;;;3.58;2.30;;;18.50;99.90;;;;;;4958277;28;20182;-89
2022/07/30 03:07:05;;;;;;;3.60;2.13;;;18.40;99.90;;;;;;4958349;29;20181;-90
2022/07/30 03:09:32;;;;;;;5.00;2.50;;;18.40;99.90;;;;;;4958405;29;20209;-91
2022/07/30 03:11:58;;;;;;;3.22;2.47;;;18.50;99.90;;;;;;4959670;28;20177;-88
2022/07/30 03:14:24;;;;;;;3.22;2.13;;;18.40;99.90;;;;;;4958320;29;20280;-90
2022/07/30 03:16:56;;;;;;;3.75;1.95;;;18.40;99.90;;;;;;4958530;29;20200;-89
2022/07/30 03:19:23;;;;;;;6.60;2.60;;;18.40;99.90;;;;;;4958282;29;20531;-89
2022/07/30 03:21:51;;;;;;;3.20;2.22;;;18.40;99.90;;;;;;4957996;29;20185;-89
2022/07/30 03:24:21;;;;;;;3.33;2.08;;;18.40;99.90;;;;;;4958347;29;20284;-88
2022/07/30 03:26:47;;;;;;;4.25;2.50;;;18.40;99.90;;;;;;4959282;28;20208;-88
2022/07/30 03:29:15;;;;;;;7.10;2.85;;;18.40;99.90;;;;;;4957371;28;20256;-86
2022/07/30 03:31:41;;;;;;;5.75;2.70;;;18.40;99.90;;;;;;4957102;29;20188;-86
2022/07/30 03:34:09;;;;;;;9.05;2.70;;;18.40;99.90;;;;;;4957200;29;20276;-84
2022/07/30 03:36:37;;;;;;;4.43;2.30;;;18.40;99.90;;;;;;4957605;29;20192;-87
2022/07/30 03:39:04;;;;;;;5.10;2.38;;;18.30;99.90;;;;;;4957594;29;20202;-86
2022/07/30 03:41:31;;;;;;;4.28;2.47;;;18.40;99.90;;;;;;4957772;29;21017;-87
2022/07/30 03:43:59;;;;;;;4.80;2.60;;;18.30;99.90;;;;;;4957681;29;20570;-88
2022/07/30 03:46:26;;;;;;;8.50;2.85;;;18.30;99.90;;;;;;4958909;28;20200;-85
2022/07/30 03:48:53;;;;;;;5.78;2.72;;;18.30;99.90;;;;;;4957720;28;20177;-87
2022/07/30 03:51:20;;;;;;;5.45;2.65;;;18.30;99.90;;;;;;4958661;28;20538;-87
2022/07/30 03:53:47;;;;;;;3.45;2.42;;;18.30;99.90;;;;;;4957486;29;20233;-90
2022/07/30 03:56:14;;;;;;;7.03;2.90;;;18.20;99.90;;;;;;4957361;29;20182;-90
2022/07/30 03:58:40;;;;;;;7.20;3.08;;;18.20;99.90;;;;;;4957628;29;20181;-89
2022/07/30 04:01:06;;;;;;;4.80;2.80;;;18.20;99.90;;;;;;4957233;29;20178;-91
2022/07/30 04:03:34;;;;;;;6.22;2.75;;;18.20;99.90;;;;;;4957216;29;20260;-90
2022/07/30 04:06:00;;;;;;;5.82;2.95;;;18.20;99.90;;;;;;4957409;29;20185;-90
2022/07/30 04:08:27;;;;;;;7.38;2.90;;;18.10;99.90;;;;;;4958542;29;20173;-88
2022/07/30 04:10:52;;;;;;;4.82;2.45;;;18.10;99.90;;;;;;4957088;29;20229;-89
2022/07/30 04:13:24;;;;;;;3.95;2.42;;;18.10;99.90;;;;;;4958383;29;20243;-90
2022/07/30 04:16:01;;;;;;;5.65;2.60;;;18.00;99.90;;;;;;4957669;28;20196;-87
2022/07/30 04:18:33;;;;;;;4.38;2.75;;;18.00;99.90;;;;;;4957311;29;20192;-88
2022/07/30 04:21:01;;;;;;;3.95;3.05;;;18.00;99.90;;;;;;4957201;29;20185;-88
2022/07/30 04:23:28;;;;;;;4.57;2.80;;;17.90;99.90;;;;;;4956967;29;20213;-92
2022/07/30 04:25:54;;;;;;;5.47;2.88;;;17.90;99.90;;;;;;4957135;29;20181;-89
2022/07/30 04:28:20;;;;;;;4.60;2.95;;;17.80;99.90;;;;;;4957064;29;20240;-90
2022/07/30 04:30:46;;;;;;;3.92;2.70;;;17.90;99.90;;;;;;4993844;28;20303;-89
2022/07/30 04:33:15;;;;;;;4.40;2.72;;;17.90;99.90;;;;;;4979521;28;20241;-91
2022/07/30 04:35:43;;;;;;;4.80;2.80;;;17.90;99.90;;;;;;4979428;28;20171;-89
2022/07/30 04:38:09;;;;;;;3.90;2.55;;;17.90;99.90;;;;;;4979366;28;20187;-88
2022/07/30 04:40:35;;;;;;;5.50;2.97;;;17.90;99.90;;;;;;4979258;28;20263;-88
2022/07/30 04:43:03;;;;;;;5.15;2.88;;;18.00;99.90;;;;;;4979215;28;20239;-89
2022/07/30 04:45:29;;;;;;;5.65;2.63;;;17.90;99.90;;;;;;4979246;28;20214;-88
2022/07/30 04:47:55;;;;;;;4.22;2.80;;;17.90;99.90;;;;;;4979045;28;20521;-90
2022/07/30 04:50:23;;;;;;;5.65;2.47;;;17.90;99.90;;;;;;4979391;28;20184;-87
2022/07/30 04:52:51;;;;;;;4.40;2.83;;;17.90;99.90;;;;;;4979144;28;20187;-90
2022/07/30 04:55:26;;;;;;;5.55;2.80;;;17.90;99.90;;;;;;4979056;28;20180;-89
2022/07/30 04:57:53;;;;;;;3.80;2.53;;;17.90;99.90;;;;;;4979075;28;20168;-87
2022/07/30 05:00:19;;;;;;;6.15;2.78;;;17.90;99.90;;;;;;4979062;28;20216;-89
2022/07/30 05:02:48;;;;;;;4.60;2.95;;;17.90;99.90;;;;;;4978914;28;20373;-90
2022/07/30 05:05:16;;;;;;;4.43;2.80;;;17.80;99.90;;;;;;4979059;28;20184;-91
2022/07/30 05:07:44;;;;;;;5.90;2.53;;;17.80;99.90;;;;;;4979114;28;20242;-90
2022/07/30 05:10:11;;;;;;;5.28;2.50;;;17.90;99.90;;;;;;4978993;28;20625;-91
2022/07/30 05:12:38;;;;;;;4.47;2.70;;;17.80;99.90;;;;;;4978922;28;20175;-91
2022/07/30 05:15:06;;;;;;;4.53;2.60;;;17.90;99.90;;;;;;4978948;28;20187;-91
2022/07/30 05:17:32;;;;;;;5.15;2.80;;;17.90;99.90;;;;;;4978907;28;20183;-90
2022/07/30 05:19:58;;;;;;;9.93;2.60;;;17.90;99.90;;;;;;4996017;28;20176;-90
2022/07/30 05:22:26;;;;;;;3.80;2.83;;;18.00;99.90;;;;;;4978687;28;20671;-88
2022/07/30 05:24:54;;;;;;;5.93;2.92;;;18.00;99.90;;;;;;4978692;28;20186;-91
2022/07/30 05:27:20;;;;;;;7.20;2.90;;;18.00;99.90;;;;;;4978796;28;20172;-90
2022/07/30 05:29:46;;;;;;;4.38;2.55;;;18.00;99.90;;;;;;4978452;28;20246;-91
2022/07/30 05:32:12;;;;;;;4.93;2.83;;;18.10;99.90;;;;;;4971174;28;20533;-89
2022/07/30 05:34:46;;;;;;;3.60;2.33;;;18.10;99.90;;;;;;4995961;28;20188;-89
2022/07/30 05:37:12;;;;;;;5.25;3.13;;;18.20;99.90;;;;;;4978799;28;20222;-89
2022/07/30 05:39:38;;;;;;;5.88;2.70;;;18.20;99.90;;;;;;4978508;28;20183;-91
2022/07/30 05:42:03;;;;;;;7.35;2.90;;;18.20;99.90;;;;;;4995598;28;20180;-90
2022/07/30 05:44:31;;;;;;;4.22;2.63;;;18.20;99.90;;;;;;4978378;28;20184;-90
2022/07/30 05:46:57;;;;;;;4.63;2.67;;;18.20;99.90;;;;;;4995767;28;20248;-90
2022/07/30 05:49:22;;;;;;;4.45;2.80;;;18.20;99.90;;;;;;4978325;28;20270;-90
2022/07/30 05:51:48;;;;;;;3.22;2.80;;;18.20;99.90;;;;;;4995486;28;20678;-88
2022/07/30 05:54:14;;;;;;;7.07;2.92;;;18.20;99.90;;;;;;4977828;28;20190;-83
2022/07/30 05:56:40;;;;;;;6.20;2.92;;;18.20;99.90;;;;;;4995293;28;20260;-85
2022/07/30 05:59:06;;;;;;;5.50;3.17;;;18.20;99.90;;;;;;4977834;28;20269;-84
2022/07/30 06:01:32;;;;;;;8.77;3.05;;;18.20;99.90;;;;;;4977545;28;20176;-86
2022/07/30 06:03:57;;;;;;;5.55;3.15;;;18.10;99.90;;;;;;4979882;28;20267;-83
2022/07/30 06:06:23;;;;;;;7.05;2.70;;;18.10;99.90;;;;;;4957709;28;20603;-85
2022/07/30 06:08:49;;;;;;;4.95;2.60;;;18.10;99.90;;;;;;4960333;28;20567;-85
2022/07/30 06:11:16;;;;;;;4.20;2.63;;;18.10;99.90;;;;;;4963784;28;20271;-86
2022/07/30 06:13:43;;;;;;;5.32;2.50;;;18.10;99.90;;;;;;4958384;28;20611;-86
2022/07/30 06:16:08;;;;;;;5.32;2.50;;;18.10;99.90;;;;;;4958641;28;20207;-91
2022/07/30 06:18:34;;;;;;;4.15;2.70;;;18.10;99.90;;;;;;4975809;28;20240;-89
2022/07/30 06:21:00;;;;;;;4.28;2.70;;;18.10;99.90;;;;;;4975438;28;20184;-89
2022/07/30 06:23:25;;;;;;;5.53;2.97;;;18.10;99.90;;;;;;4995148;28;20290;-88
2022/07/30 06:25:59;;;;;;;4.50;2.47;;;18.10;99.90;;;;;;4995270;28;20187;-89
2022/07/30 06:28:25;;;;;;;4.05;2.60;;;18.10;99.90;;;;;;4995353;28;20176;-89
2022/07/30 06:30:50;;;;;;;3.97;2.50;;;18.10;99.90;;;;;;4958948;28;20321;-90
2022/07/30 06:33:16;;;;;;;4.20;2.55;;;18.00;99.90;;;;;;4955422;29;20189;-89
2022/07/30 06:35:43;;;;;;;5.53;2.67;;;18.00;99.90;;;;;;4955590;29;20178;-89
2022/07/30 06:38:08;;;;;;;6.97;3.00;;;18.00;99.90;;;;;;4956898;28;20169;-86
2022/07/30 06:40:34;;;;;;;3.70;2.47;;;18.00;99.90;;;;;;4958679;29;20566;-89
2022/07/30 06:42:59;;;;;;;4.93;2.70;;;17.90;99.90;;;;;;4959925;28;20209;-90
2022/07/30 06:45:26;;;;;;;5.65;3.22;;;17.90;99.90;;;;;;4959813;29;20268;-89
2022/07/30 06:47:57;;;;;;;5.40;3.00;;;18.00;99.90;;;;;;4959989;29;20186;-89
2022/07/30 06:50:22;;;;;;;4.50;2.67;;;17.90;99.90;;;;;;4958597;29;20177;-92
2022/07/30 06:52:48;;;;;;;6.15;2.70;;;18.00;99.90;;;;;;4959905;29;20184;-92
2022/07/30 06:55:15;;;;;;;3.22;2.05;;;18.10;99.90;;;;;;4958754;29;20185;-89
2022/07/30 06:57:40;;;;;;;4.20;2.40;;;18.10;99.90;;;;;;4958769;29;20185;-90
2022/07/30 07:00:07;;;;;;;3.13;2.78;;;18.10;99.90;;;;;;4959168;29;20182;-88
2022/07/30 07:02:33;;;;;;;3.83;2.88;;;18.10;99.90;;;;;;4958395;28;20209;-88
2022/07/30 07:05:01;;;;;;;5.38;2.92;;;18.20;99.90;;;;;;4959591;29;20177;-88
2022/07/30 07:07:26;;;;;;;5.35;2.80;;;18.30;99.90;;;;;;4958500;29;20225;-89
2022/07/30 07:09:52;;;;;;;4.43;2.33;;;18.40;99.90;;;;;;4958331;29;20182;-89
2022/07/30 07:12:17;;;;;;;5.38;2.63;;;18.70;99.90;;;;;;4959429;29;20220;-89
2022/07/30 07:14:49;;;;;;;4.18;2.35;;;18.90;99.90;;;;;;4958230;29;20579;-89
2022/07/30 07:17:15;;;;;;;6.15;2.33;;;19.10;99.90;;;;;;4959681;28;20181;-89
2022/07/30 07:19:41;;;;;;;2.97;2.13;;;19.40;99.90;;;;;;4958113;29;20178;-89
2022/07/30 07:22:06;;;;;;;3.45;2.17;;;19.50;99.90;;;;;;4959619;29;20177;-90
2022/07/30 07:24:33;;;;;;;4.35;2.10;;;19.70;99.90;;;;;;4959113;29;20189;-92
2022/07/30 07:26:59;;;;;;;4.25;2.25;;;19.70;99.90;;;;;;4958600;29;20177;-91
2022/07/30 07:29:24;;;;;;;3.45;2.00;;;19.80;99.90;;;;;;4957415;28;20237;-91
2022/07/30 07:31:50;;;;;;;2.40;2.20;;;20.00;99.90;;;;;;4958062;29;20213;-90
2022/07/30 07:34:16;;;;;;;3.60;2.25;;;20.30;99.90;;;;;;4958086;29;20184;-90
2022/07/30 07:36:50;;;;;;;2.22;1.95;;;20.60;99.90;;;;;;4959126;29;20188;-90
2022/07/30 07:39:15;;;;;;;5.03;2.10;;;20.70;99.90;;;;;;4958017;29;20173;-88
2022/07/30 07:41:41;;;;;;;2.63;2.17;;;20.90;99.90;;;;;;4958772;28;20551;-88
2022/07/30 07:44:07;;;;;;;2.40;2.10;;;21.10;99.90;;;;;;4957616;29;20232;-87
2022/07/30 07:46:34;;;;;;;5.70;2.20;;;21.20;99.90;;;;;;4958804;29;20173;-88
2022/07/30 07:48:59;;;;;;;2.70;2.40;;;21.30;99.90;;;;;;4957575;28;20181;-88
2022/07/30 07:51:25;;;;;;;6.20;2.70;;;21.20;99.90;;;;;;4956465;29;20249;-88
2022/07/30 07:53:51;;;;;;;2.70;2.33;;;21.30;99.90;;;;;;4958126;29;20272;-87
2022/07/30 07:56:21;;;;;;;4.45;2.25;;;21.30;99.90;;;;;;4958619;29;20216;-88
2022/07/30 07:58:46;;;;;;;3.00;2.47;;;21.30;99.90;;;;;;4951045;29;20174;-87
2022/07/30 08:01:12;;;;;;;2.75;2.00;;;21.40;99.90;;;;;;4950019;29;20534;-87
2022/07/30 08:03:38;;;;;;;3.35;2.10;;;21.50;99.90;;;;;;4940122;29;20525;-87
2022/07/30 08:06:11;;;;;;;4.05;2.40;;;21.40;99.90;;;;;;4958236;29;20181;-87
2022/07/30 08:08:37;;;;;;;3.30;2.35;;;21.50;99.90;;;;;;4950071;29;20174;-87
2022/07/30 08:11:04;;;;;;;3.15;2.40;;;21.40;99.90;;;;;;4949465;29;20193;-86
2022/07/30 08:13:30;;;;;;;4.05;2.80;;;21.40;99.90;;;;;;4956850;28;20242;-87
2022/07/30 08:15:56;;;;;;;4.13;2.60;;;21.50;99.90;;;;;;4956466;29;20541;-88
2022/07/30 08:18:22;;;;;;;2.72;2.20;;;21.60;99.90;;;;;;4958102;29;20196;-89
2022/07/30 08:20:49;;;;;;;4.20;2.08;;;21.60;99.90;;;;;;4956644;29;20605;-88
2022/07/30 08:23:14;;;;;;;2.70;2.13;;;21.70;99.90;;;;;;4956965;29;20255;-88
2022/07/30 08:39:09;;;;;;;2.67;1.83;;;22.00;99.90;;;;;;3334501;28;22115;-92
2022/07/30 08:41:36;;;;;;;2.30;1.88;;;22.10;99.90;;;;;;5017995;28;20277;-90
2022/07/30 08:44:02;;;;;;;2.13;1.70;;;22.10;99.90;;;;;;5017441;28;20924;-89
2022/07/30 08:46:30;;;;;;;2.78;1.90;;;22.20;99.90;;;;;;5004430;28;20179;-90
2022/07/30 08:48:57;;;;;;;1.90;1.70;;;22.40;99.90;;;;;;5042914;28;20178;-89
2022/07/30 08:51:23;;;;;;;3.33;1.70;;;22.60;99.90;;;;;;5022358;28;20637;-87
2022/07/30 08:53:50;;;;;;;2.75;1.75;;;22.60;99.90;;;;;;5016644;28;20179;-86
2022/07/30 08:56:16;;;;;;;2.60;1.83;;;22.70;99.90;;;;;;5024809;28;20175;-88
2022/07/30 08:58:44;;;;;;;4.13;2.03;;;22.70;99.90;;;;;;5034342;28;20183;-93
2022/07/30 09:01:10;;;;;;;2.20;1.67;;;22.80;99.90;;;;;;5017606;28;20187;-89
2022/07/30 09:03:37;;;;;;;2.75;1.95;;;22.90;99.90;;;;;;5032850;28;20222;-87
2022/07/30 09:06:04;;;;;;;2.00;1.73;;;23.00;99.90;;;;;;5014518;28;20609;-86
2022/07/30 09:08:32;;;;;;;1.95;1.50;;;23.10;99.90;;;;;;5032693;28;20185;-90
2022/07/30 09:10:59;;;;;;;2.50;1.60;;;22.90;99.90;;;;;;5023314;28;20193;-87
2022/07/30 09:13:31;;;;;;;2.28;1.70;;;22.90;99.90;;;;;;5014270;28;20179;-85
2022/07/30 09:15:58;;;;;;;3.67;1.60;;;22.90;99.90;;;;;;5013404;28;20232;-87
2022/07/30 09:18:35;;;;;;;3.05;2.03;;;23.00;99.90;;;;;;5020548;28;20621;-88
2022/07/30 09:21:17;;;;;;;3.53;1.80;;;23.10;99.90;;;;;;5019119;28;20247;-85
2022/07/30 09:24:03;;;;;;;2.97;1.90;;;23.30;99.90;;;;;;5009781;28;20614;-88
2022/07/30 09:26:31;;;;;;;1.60;1.50;;;23.40;99.90;;;;;;5002761;28;20189;-89
2022/07/30 09:29:19;;;;;;;2.20;1.60;;;23.50;99.90;;;;;;5009592;28;20183;-89
2022/07/30 09:32:20;;;;;;;3.28;1.80;;;23.60;99.90;;;;;;5021109;28;20245;-88
2022/07/30 09:34:46;;;;;;;3.50;2.10;;;23.60;99.90;;;;;;5008571;28;20196;-85
2022/07/30 09:37:11;;;;;;;3.70;1.83;;;23.50;99.90;;;;;;5000654;28;20183;-89
2022/07/30 09:39:39;;;;;;;2.53;2.00;;;23.50;99.90;;;;;;5007008;28;20234;-89
2022/07/30 09:42:20;;;;;;;2.65;1.45;;;23.60;99.90;;;;;;4992834;28;20183;-86
2022/07/30 09:44:47;;;;;;;3.47;1.73;;;23.70;99.90;;;;;;4984590;28;20256;-87
2022/07/30 09:47:37;;;;;;;5.78;1.75;;;23.70;99.90;;;;;;4992257;28;20190;-88
2022/07/30 09:50:08;;;;;;;2.72;1.80;;;23.70;99.90;;;;;;4987091;28;20199;-87
2022/07/30 09:52:35;;;;;;;1.83;1.40;;;23.60;99.90;;;;;;4980466;28;20187;-88
2022/07/30 09:55:01;;;;;;;2.05;1.40;;;23.60;99.90;;;;;;4983462;28;20632;-88
2022/07/30 09:57:27;;;;;;;1.50;1.30;;;23.50;99.90;;;;;;4980164;28;20204;-88
2022/07/30 09:59:56;;;;;;;2.13;1.50;;;23.30;99.60;;;;;;4973751;28;20208;-88
2022/07/30 10:02:30;;;;;;;3.97;1.30;;;23.10;98.00;;;;;;4991517;28;20222;-88
2022/07/30 10:05:11;;;;;;;2.05;1.55;;;23.00;97.70;;;;;;4993599;28;20183;-88
2022/07/30 10:07:37;;;;;;;2.88;1.50;;;22.90;99.10;;;;;;4994175;28;20191;-88
2022/07/30 10:10:03;;;;;;;4.30;1.30;;;22.70;99.20;;;;;;4994009;28;20517;-87
2022/07/30 10:12:31;;;;;;;2.05;1.60;;;22.70;99.80;;;;;;4994186;28;20176;-87
2022/07/30 10:15:00;;;;;;;1.85;1.63;;;22.70;99.90;;;;;;4996604;28;20645;-86
2022/07/30 10:17:26;;;;;;;3.03;1.63;;;22.60;99.90;;;;;;4996916;28;20184;-88
2022/07/30 10:19:53;;;;;;;2.25;1.80;;;22.60;99.90;;;;;;4997362;28;20233;-88
2022/07/30 10:22:19;;;;;;;2.65;1.80;;;22.60;99.90;;;;;;4996849;28;20219;-89
2022/07/30 10:24:45;;;;;;;2.58;1.70;;;22.60;99.90;;;;;;4997421;28;20183;-89
2022/07/30 10:27:10;;;;;;;2.25;1.70;;;22.60;99.90;;;;;;4998360;28;20182;-89
2022/07/30 10:29:37;;;;;;;1.95;1.65;;;22.70;99.90;;;;;;4985745;28;20184;-90
2022/07/30 10:32:04;;;;;;;1.85;1.70;;;22.70;99.90;;;;;;4987875;28;20889;-90
2022/07/30 10:34:32;;;;;;;3.33;1.42;;;22.70;99.90;;;;;;4985325;28;20674;-89
2022/07/30 10:37:02;;;;;;;3.05;1.73;;;22.80;99.90;;;;;;4995011;28;20646;-89
2022/07/30 10:39:54;;;;;;;1.83;1.65;;;22.80;99.90;;;;;;4998509;28;20235;-88
2022/07/30 10:42:33;;;;;;;2.58;1.83;;;22.80;99.90;;;;;;5008270;28;20207;-87
2022/07/30 10:45:14;;;;;;;3.53;1.80;;;22.90;99.90;;;;;;5005422;28;20171;-83
2022/07/30 10:47:41;;;;;;;2.60;1.70;;;22.90;99.90;;;;;;5028974;28;20229;-88
2022/07/30 10:50:19;;;;;;;2.47;1.70;;;22.90;99.90;;;;;;5019619;28;20462;-87
2022/07/30 10:53:01;;;;;;;2.60;1.65;;;22.90;99.90;;;;;;5018603;28;20190;-87
2022/07/30 10:55:33;;;;;;;4.97;1.63;;;23.00;99.90;;;;;;5019398;28;20284;-86
2022/07/30 10:58:01;;;;;;;2.50;1.98;;;23.00;99.90;;;;;;5019343;28;20179;-88
2022/07/30 11:00:30;;;;;;;1.67;1.48;;;23.10;99.90;;;;;;5019115;28;20182;-86
2022/07/30 11:03:16;;;;;;;2.20;1.70;;;23.10;99.90;;;;;;5018941;28;20775;-85
2022/07/30 11:05:43;;;;;;;2.78;1.98;;;23.10;99.90;;;;;;5036742;28;20625;-86
2022/07/30 11:08:37;;;;;;;2.28;1.90;;;23.10;99.90;;;;;;5018227;28;20270;-88
2022/07/30 11:11:27;;;;;;;4.05;2.10;;;23.10;99.90;;;;;;5037063;28;20171;-88
2022/07/30 11:13:58;;;;;;;3.53;2.00;;;23.20;99.90;;;;;;5037172;28;20177;-87
2022/07/30 11:16:50;;;;;;;1.58;1.48;;;23.20;99.90;;;;;;5036817;28;20189;-87
2022/07/30 11:19:19;;;;;;;2.35;1.70;;;23.30;99.90;;;;;;5011710;28;20289;-87
2022/07/30 11:21:46;;;;;;;2.00;1.50;;;23.30;99.90;;;;;;5020178;28;20715;-88
2022/07/30 11:24:49;;;;;;;4.10;2.17;;;23.30;99.90;;;;;;5018415;28;20210;-88
2022/07/30 11:27:50;;;;;;;4.20;1.88;;;23.30;99.90;;;;;;5019286;28;20278;-87
2022/07/30 11:30:16;;;;;;;3.15;1.90;;;23.40;99.90;;;;;;4952839;28;20190;-90
2022/07/30 11:32:47;;;;;;;3.55;1.55;;;23.40;99.90;;;;;;5037433;28;20182;-89
2022/07/30 11:35:16;;;;;;;2.53;1.83;;;23.40;99.90;;;;;;5017671;28;20182;-87
2022/07/30 11:38:05;;;;;;;4.28;1.65;;;23.40;99.90;;;;;;5017808;28;20179;-87
2022/07/30 11:40:48;;;;;;;1.60;1.50;;;23.50;99.90;;;;;;5035717;28;20738;-90
2022/07/30 11:43:31;;;;;;;4.88;1.70;;;23.50;99.90;;;;;;5018481;28;20509;-89
2022/07/30 11:46:12;;;;;;;2.58;1.50;;;23.50;99.90;;;;;;5012021;28;20202;-90
2022/07/30 11:48:41;;;;;;;2.88;1.50;;;23.50;99.90;;;;;;5036251;28;20709;-91
2022/07/30 11:51:15;;;;;;;1.73;1.58;;;23.50;99.90;;;;;;5033267;28;20225;-88
2022/07/30 11:53:41;;;;;;;1.55;1.45;;;23.50;99.90;;;;;;5018427;28;20461;-90
2022/07/30 11:56:08;;;;;;;2.58;1.60;;;23.50;99.90;;;;;;5035233;28;20293;-88
2022/07/30 11:58:38;;;;;;;1.98;1.45;;;23.50;99.90;;;;;;5018350;28;20181;-91
2022/07/30 12:01:12;;;;;;;1.80;1.70;;;23.50;99.90;;;;;;5017993;28;20194;-89
2022/07/30 12:03:43;;;;;;;3.50;1.75;;;23.50;99.80;;;;;;5018186;28;20264;-90
2022/07/30 12:06:18;;;;;;;2.63;1.52;;;23.50;99.60;;;;;;5017494;28;20273;-90
2022/07/30 12:08:49;;;;;;;1.92;1.60;;;23.50;99.90;;;;;;5018260;28;20663;-90
2022/07/30 12:11:16;;;;;;;2.05;1.33;;;23.50;99.90;;;;;;5035320;28;20230;-90
2022/07/30 12:13:43;;;;;;;1.98;1.50;;;23.50;99.80;;;;;;5018325;28;20187;-91
2022/07/30 12:16:14;;;;;;;2.15;1.50;;;23.50;99.90;;;;;;5017156;28;20534;-89
2022/07/30 12:18:40;;;;;;;1.85;1.50;;;23.50;99.80;;;;;;5017967;28;20193;-92
2022/07/30 12:21:10;;;;;;;2.42;1.60;;;23.60;99.90;;;;;;5035491;28;20180;-89
2022/07/30 12:23:37;;;;;;;2.85;1.60;;;23.70;99.70;;;;;;5017210;28;20229;-88
2022/07/30 12:26:03;;;;;;;1.83;1.48;;;23.70;99.00;;;;;;5034175;28;20257;-88
2022/07/30 12:28:32;;;;;;;2.45;1.55;;;23.70;98.70;;;;;;5013490;28;20205;-89
2022/07/30 12:31:03;;;;;;;2.45;1.67;;;23.80;98.50;;;;;;5013672;28;20236;-88
2022/07/30 12:33:29;;;;;;;4.45;2.10;;;23.80;98.40;;;;;;5017137;28;20186;-88
2022/07/30 12:35:57;;;;;;;2.10;1.52;;;23.90;99.00;;;;;;5015720;28;20178;-85
2022/07/30 12:38:25;;;;;;;3.10;1.75;;;24.00;99.40;;;;;;5034025;28;20186;-85
2022/07/30 12:40:52;;;;;;;5.65;1.73;;;24.00;99.40;;;;;;5035011;28;20221;-86
2022/07/30 12:43:42;;;;;;;2.28;1.67;;;24.00;99.10;;;;;;5035125;28;20223;-88
2022/07/30 12:46:08;;;;;;;2.78;1.88;;;24.00;99.70;;;;;;5016868;28;20215;-88
2022/07/30 12:48:34;;;;;;;2.63;1.80;;;24.10;99.70;;;;;;4998462;28;20179;-88
2022/07/30 12:51:09;;;;;;;3.30;1.98;;;24.20;99.40;;;;;;5013843;28;20182;-87
2022/07/30 12:53:35;;;;;;;3.10;1.77;;;24.20;99.90;;;;;;5017313;28;20264;-89
2022/07/30 12:56:19;;;;;;;2.58;1.83;;;24.30;99.90;;;;;;5017323;28;20213;-90
2022/07/30 12:58:44;;;;;;;2.30;1.75;;;24.50;99.90;;;;;;5017982;28;20178;-89
2022/07/30 13:01:11;;;;;;;2.20;1.75;;;24.70;99.70;;;;;;5017064;28;20182;-89
2022/07/30 13:03:38;;;;;;;3.60;1.77;;;24.90;98.70;;;;;;5017221;28;20214;-87
2022/07/30 13:06:15;;;;;;;1.85;1.60;;;25.30;98.40;;;;;;5017452;28;20175;-90
2022/07/30 13:08:57;;;;;;;1.58;1.38;;;25.70;98.50;;;;;;5032512;28;20223;-87
2022/07/30 13:11:36;;;;;;;1.92;1.50;;;26.20;98.50;;;;;;5033946;28;20514;-87
2022/07/30 13:14:02;;;;;;;1.60;1.50;;;26.70;96.90;;;;;;5035295;28;20257;-86